Terminal Aerodrome Forecast
Issued by NWS Grand Forks, ND

Home | Current Version | Previous Version | Text Only | Print | Product List | Glossary On
Versions: 1 2 3 4 5 6 7 8 9 10
000
FTUS43 KFGF 271100
TAFFAR
TAF
KFAR 271120Z 2712/2812 29004KT P6SM SKC
     FM271600 21005KT P6SM BKN050
     FM272200 23007KT P6SM SCT100
     FM280200 VRB06KT P6SM BKN050=

USA.gov is the U.S. government's official web portal to all federal, state and local government web resources and services.